Terminal Aerodrome Forecast
Issued by NWS Billings, MT

Home | Current Version | Previous Version | Text Only | Print | Product List | Glossary On
Versions: 1 2 3 4 5 6 7 8 9 10 11 12 13 14 15 16 17 18 19 20 21 22 23 24 25 26
000
FTUS45 KBYZ 260828 AAA
TAFBIL
TAF AMD
KBIL 260828Z 2608/2706 24008KT 1SM -SN BR BKN002 OVC015
     FM261100 VRB03KT 2SM -SN BR OVC015
     FM261800 06008KT 3SM -SN BR SCT020 OVC030
     FM262200 10008KT P6SM VCSH SCT040 OVC060=

USA.gov is the U.S. government's official web portal to all federal, state and local government web resources and services.